»·PEaware :: N183RM KLAX-KSAN

N183RM :: KLAX-KSAN

FLIGHT INFORMATION

Flight Status: Arrived
Operator: Privately registered:
United States
More flights under this callsign
Pilot: Roy M. (33676)
Aircraft: CESSNA 172 SKYHAWK
(C172)
More flights by this aircraft type
Origin: KLAX Los Angeles Intl
United States
Destination: KSAN San Diego Intl-Lindbergh
United States
More flights between these airports :: More routes between these airports
Route:
File this flight plan on PilotEdge
Remarks:
Altitude:
(Current/Filed)
5,500ft
Speed:
(Current/Filed)
110kts
Departed: 22-Feb-21 07:07 PM
Arrived: 22-Feb-21 08:23 PM
Distance/Time
Traveled:
95nm/1:16
Distance/Time
To Go:
Arrived

Flight Plot

Page will automatically refresh every two minutes.


Map Options




Map Legend


Flown Route
Filed Route
Departure Airport
Arrival Airport
Navaid (VOR, NDB)
Fix

Horizontal Profiles

Position Reports

Time Latitude Longitude Heading Altitude Ground
Speed
22-Feb-21 18:45 33.933622 -118.394162 271 120ft 0kts
22-Feb-21 18:46 33.933622 -118.394162 271 120ft 0kts
22-Feb-21 18:47 33.933622 -118.394162 271 120ft 0kts
22-Feb-21 18:48 33.933622 -118.394162 271 120ft 0kts
22-Feb-21 18:49 33.933622 -118.394162 271 120ft 0kts
22-Feb-21 18:50 33.933622 -118.394162 271 120ft 0kts
22-Feb-21 18:51 33.933622 -118.394162 271 120ft 0kts
22-Feb-21 18:52 33.933622 -118.394162 271 120ft 0kts
22-Feb-21 18:53 33.933622 -118.394162 271 120ft 0kts
22-Feb-21 18:54 33.933622 -118.394162 271 120ft 0kts
22-Feb-21 18:55 33.933622 -118.394162 271 120ft 0kts
22-Feb-21 18:56 33.933622 -118.394162 271 120ft 0kts
22-Feb-21 18:58 33.933622 -118.394162 271 120ft 0kts
22-Feb-21 18:59 33.933622 -118.394162 271 120ft 0kts
22-Feb-21 19:00 33.933622 -118.394158 271 120ft 0kts
22-Feb-21 19:01 33.933621 -118.394068 271 120ft 0kts
22-Feb-21 19:02 33.933912 -118.394491 333 120ft 14kts
22-Feb-21 19:03 33.935332 -118.390415 83 120ft 27kts
22-Feb-21 19:04 33.936246 -118.383143 47 120ft 0kts
22-Feb-21 19:05 33.936246 -118.383143 47 120ft 0kts
22-Feb-21 19:06 33.937025 -118.382952 332 120ft 18kts
22-Feb-21 19:07 33.935439 -118.401836 262 391ft 84kts
22-Feb-21 19:08 33.931930 -118.431505 262 1147ft 91kts
22-Feb-21 19:09 33.923904 -118.458795 199 1933ft 93kts
22-Feb-21 19:10 33.901601 -118.439705 129 2411ft 104kts
22-Feb-21 19:11 33.897880 -118.410872 74 1600ft 104kts
22-Feb-21 19:12 33.901315 -118.384782 75 1409ft 78kts
22-Feb-21 19:13 33.906735 -118.361650 40 1341ft 74kts
22-Feb-21 19:14 33.925918 -118.359204 351 780ft 80kts
22-Feb-21 19:15 33.938204 -118.374011 267 319ft 60kts
22-Feb-21 19:16 33.936501 -118.390343 257 120ft 16kts
22-Feb-21 19:17 33.935585 -118.391051 175 120ft 0kts
22-Feb-21 19:18 33.934203 -118.391975 213 120ft 25kts
22-Feb-21 19:19 33.933991 -118.392291 262 120ft 0kts
22-Feb-21 19:20 33.933992 -118.392291 262 120ft 0kts
22-Feb-21 19:21 33.933992 -118.392291 262 120ft 0kts
22-Feb-21 19:21 33.933991 -118.392291 262 120ft 0kts
22-Feb-21 19:22 33.933992 -118.392291 262 120ft 0kts
22-Feb-21 19:24 33.933991 -118.392291 262 120ft 0kts
22-Feb-21 19:25 33.933992 -118.392291 262 120ft 0kts
22-Feb-21 19:26 33.934074 -118.392503 315 120ft 8kts
22-Feb-21 19:26 33.935384 -118.390058 83 120ft 17kts
22-Feb-21 19:27 33.936273 -118.383090 31 120ft 0kts
22-Feb-21 19:28 33.936273 -118.383090 31 120ft 0kts
22-Feb-21 19:30 33.936943 -118.387208 261 120ft 61kts
22-Feb-21 19:31 33.934440 -118.411679 255 713ft 82kts
22-Feb-21 19:31 33.917034 -118.417233 169 1324ft 87kts
22-Feb-21 19:32 33.892949 -118.411009 163 1999ft 95kts
22-Feb-21 19:33 33.868094 -118.400724 153 2660ft 95kts
22-Feb-21 19:34 33.844626 -118.387717 150 3329ft 90kts
22-Feb-21 19:35 33.818959 -118.372851 150 3505ft 122kts
22-Feb-21 19:36 33.787067 -118.354184 150 3501ft 129kts
22-Feb-21 19:37 33.756849 -118.331768 140 3498ft 127kts
22-Feb-21 19:38 33.728962 -118.305343 131 3491ft 126kts
22-Feb-21 19:39 33.704449 -118.275673 130 3495ft 124kts
22-Feb-21 19:40 33.680391 -118.246340 130 3498ft 122kts
22-Feb-21 19:41 33.656365 -118.217301 130 3499ft 122kts
22-Feb-21 19:42 33.632408 -118.188554 130 3500ft 122kts
22-Feb-21 19:43 33.608503 -118.159696 130 3500ft 122kts
22-Feb-21 19:44 33.584589 -118.130772 130 3500ft 122kts
22-Feb-21 19:45 33.560758 -118.101864 130 3500ft 122kts
22-Feb-21 19:46 33.536892 -118.072940 130 3500ft 122kts
22-Feb-21 19:47 33.519096 -118.039535 111 3500ft 119kts
22-Feb-21 19:48 33.505546 -118.003231 110 3500ft 119kts
22-Feb-21 19:49 33.491006 -117.967382 126 3499ft 122kts
22-Feb-21 19:50 33.467706 -117.937630 129 3500ft 123kts
22-Feb-21 19:51 33.443865 -117.908404 130 3499ft 122kts
22-Feb-21 19:52 33.420046 -117.879093 130 3500ft 123kts
22-Feb-21 19:53 33.394625 -117.851636 139 3500ft 124kts
22-Feb-21 19:54 33.369039 -117.824128 130 3500ft 123kts
22-Feb-21 19:55 33.345245 -117.794951 130 3500ft 123kts
22-Feb-21 19:56 33.321428 -117.765614 130 3497ft 123kts
22-Feb-21 19:57 33.297454 -117.736144 130 3490ft 123kts
22-Feb-21 19:58 33.273578 -117.706731 130 3490ft 123kts
22-Feb-21 19:59 33.249805 -117.677315 130 3489ft 123kts
22-Feb-21 20:00 33.226104 -117.647847 130 3490ft 123kts
22-Feb-21 20:01 33.202497 -117.618436 130 3490ft 122kts
22-Feb-21 20:02 33.178911 -117.589020 130 3490ft 122kts
22-Feb-21 20:03 33.155339 -117.559645 130 3490ft 122kts
22-Feb-21 20:04 33.131725 -117.530383 130 3479ft 123kts
22-Feb-21 20:05 33.108046 -117.500943 127 3455ft 122kts
22-Feb-21 20:06 33.088478 -117.467993 120 3454ft 121kts
22-Feb-21 20:07 33.069913 -117.434583 120 3462ft 121kts
22-Feb-21 20:08 33.051308 -117.401157 120 3463ft 121kts
22-Feb-21 20:09 33.027343 -117.372788 139 3463ft 123kts
22-Feb-21 20:10 32.999258 -117.349090 146 3463ft 124kts
22-Feb-21 20:11 32.968457 -117.330409 149 3463ft 124kts
22-Feb-21 20:12 32.937362 -117.312193 149 3466ft 124kts
22-Feb-21 20:13 32.906348 -117.294137 149 3473ft 124kts
22-Feb-21 20:14 32.875399 -117.276221 149 3473ft 124kts
22-Feb-21 20:15 32.844246 -117.257916 149 3258ft 133kts
22-Feb-21 20:16 32.811844 -117.239049 149 2757ft 123kts
22-Feb-21 20:17 32.781507 -117.221456 149 2258ft 120kts
22-Feb-21 20:18 32.754386 -117.200355 107 1528ft 114kts
22-Feb-21 20:19 32.744566 -117.169005 104 1111ft 82kts
22-Feb-21 20:20 32.731420 -117.147964 175 809ft 95kts
22-Feb-21 20:21 32.729606 -117.173456 281 157ft 80kts
22-Feb-21 20:22 32.734627 -117.190832 21 17ft 12kts
22-Feb-21 20:23 32.734807 -117.189480 99 16ft 15kts
22-Feb-21 20:24 32.734169 -117.184823 96 19ft 0kts
22-Feb-21 20:25 32.732247 -117.179381 93 16ft 21kts
22-Feb-21 20:26 32.732594 -117.178467 48 17ft 0kts

Navigation Log

Ident Type
Flight plan parsing failed, navigation log unavailable